KFULKSQL

Guest
Details From KFUL - Fullerton Muni
To KSQL - San Carlos
Flight Number -
Tags decoded
Created
Modified
Stats Distance 325 nm / 601 km
Max Altitude 0 ft / 0 m
Waypoints 9
Social Downloads 1
Likes 0
Share VATSIM

Download

Looking for another format? Having issues loading an existing format? Contact us
Advertisement - Login to hide

Notes

Requested: KFUL VPLSR SMO VTU GVO PRB CA88 SNS KSQL

Route

KFUL VPLSR SMO VTU GVO PRB CA88 SNS KSQL

ID Type Via Altitude Latitude Longitude Leg Dist Tot Dist Heading (true) Name
O KFUL APT - 0 ft / 0 m 33.87202˚ -117.97980˚ - 0 nm - Fullerton Muni
VPLSR FIX - 0 ft / 0 m 33.88444˚ -118.35222˚ 18 nm 18 nm 272° / 272° -
SMO VOR - 0 ft / 0 m 34.01025˚ -118.45672˚ 9 nm 27 nm 325° / 325° SANTA MONICA VOR-DME
VTU VOR - 0 ft / 0 m 34.11506˚ -119.04950˚ 30 nm 57 nm 282° / 282° VENTURA VOR-DME
GVO VOR - 0 ft / 0 m 34.53133˚ -120.09108˚ 57 nm 115 nm 296° / 296° GAVIOTA VORTAC
PRB VOR - 0 ft / 0 m 35.67247˚ -120.62711˚ 73 nm 188 nm 339° / 339° PASO ROBLES VORTAC
CA88 APT - 0 ft / 0 m 36.02608˚ -120.90768˚ 25 nm 213 nm 327° / 327° San Ardo Field
SNS VOR - 0 ft / 0 m 36.66383˚ -121.60319˚ 50 nm 264 nm 319° / 318° SALINAS VORTAC
O KSQL APT - 0 ft / 0 m 37.51173˚ -122.24939˚ 59 nm 324 nm 329° / 329° San Carlos

Altitude Profile

Advertisement - Login to hide

Weather


0- 5 10 15 20 25 30 35+ Temperature / ° C

Clouds and Precipitation
Forecast for 2017-12-14 06:00 UTC. Updated 2 hours ago

Ground ~20,000 ft ~40,000 ft Winds

KFUL

Details ICAO KFUL (FUL)
Name Fullerton Muni
Region United States
Timezone America/Los_Angeles (UTC-8.0)
Stats Elevation 96 ft / 29 m (AMSL)
Location 33.872024° -117.979798°
Runways 1
Magnetic Variation 11.906° E

METAR

KFUL 140553Z AUTO 09003KT 10SM CLR 12/02 A2996 RMK AO2 SLP144 T01220022 10233 20117 51010

Decode

TAF

Not found

Departure Runways

ID Width Length Bearing (true) Bearing (mag) Surface Threshold Offset Overrun Length
06 75 ft / 23 m 3,115 ft / 950 m 76.92° 65.01° Asphalt 427 ft / 130 m 0 ft / 0 m
24 75 ft / 23 m 3,115 ft / 950 m 256.92° 245.01° Asphalt 253 ft / 77 m 0 ft / 0 m

KSQL

Details ICAO KSQL (SQL)
Name San Carlos
Region United States
Timezone America/Los_Angeles (UTC-8.0)
Stats Elevation 5 ft / 2 m (AMSL)
Location 37.511735° -122.249386°
Runways 1
Magnetic Variation 13.421° E

METAR

KSQL 140635Z AUTO 00000KT 10SM CLR 08/02 A3008 RMK AO2

Decode

TAF

Not found

Destination Runways

ID Width Length Bearing (true) Bearing (mag) Surface Threshold Offset Overrun Length
12 75 ft / 23 m 2,619 ft / 798 m 138.39° 124.97° Asphalt 0 ft / 0 m 299 ft / 91 m
30 75 ft / 23 m 2,619 ft / 798 m 318.40° 304.98° Asphalt 0 ft / 0 m 135 ft / 41 m